モントリオール/トルドー の空港の天気 - METARとTAF

モントリオール・ピエール・エリオット・トルドー国際空港 ( CYUL / YUL ) - カナダ ケベック州モントリオール
飛行場実況気象(Metar)
観測時間11/30 14:00 EST (11/30 19:00 UTC)
風向・風速北北東 6m/s
視程9650m
天気現象雨 もや
全天を覆う雲 雲底高度 1070m
気温5℃
湿度87%
気圧1007.8hPa
METARCYUL 301900Z 03011KT 6SM RA BR OVC035 05/03 A2975 RMK NS8 PRESFR SLP078
過去の天気等 Google飛行場航空写真 Wunderground天気予報

過去48時間のMETAR

飛行場予報(TAF)
発表時間: 11/30 12:38 EST (11/30 17:38 UTC)
予報対象時間: 30日13時 EST ~ 1日13時 EST
風向・風速東 5m/s
視程10km以上
全天を覆う雲 雲底高度 1520m
30日14時 EST から
風向・風速東 6m/s
視程10km以上
天気現象弱い雨
全天の4割程度の雲 雲底高度 610m
全天を覆う雲 雲底高度 1220m
30日14時 EST ~ 30日15時 EST に一時的に
視程8050m
天気現象弱い雨 もや
少しの雲 雲底高度 180m
全天を覆う雲 雲底高度 610m
30日14時 EST ~ 30日15時 EST に徐々に
風向・風速北東 8m/s 瞬間風速 13m/s
30日15時 EST から
風向・風速北東 8m/s 瞬間風速 13m/s
視程4830m
天気現象弱い雨 もや
全天を覆う雲 雲底高度 180m
30日15時 EST ~ 30日18時 EST に一時的に
視程3220m
天気現象しゅう雨 もや
全天を覆う雲 雲底高度 90m
30日22時 EST から
風向・風速北東 6m/s
視程8850m
天気現象弱い雨 弱い霧雨 もや
全天を覆う雲 雲底高度 90m
1日0時 EST から
風向・風速北北東 4m/s
視程1210m
天気現象弱い雨 弱い霧雨 もや
全天を覆う雲 雲底高度 90m
1日0時 EST から 確率 30% で
視程400m
天気現象弱い霧雨 霧
全天を覆う雲 鉛直視程 30m
1日7時 EST から
風向・風速東南東 4m/s
視程10km以上
天気現象弱いしゅう雨 もや
全天を覆う雲 雲底高度 610m
TAF CYUL 301738Z 3018/0118 09010KT P6SM OVC050
FM301900 10012KT P6SM -RA SCT020 OVC040
TEMPO 3019/3020 5SM -RA BR FEW006 OVC020
BECMG 3019/3020 05015G25KT
FM302000 05015G25KT 3SM -RA BR OVC006
TEMPO 3020/3023 2SM SHRA BR OVC003
FM010300 04012KT 11/2SM -RA -DZ BR OVC003
FM010500 03008KT 3/4SM -RA -DZ BR OVC003
PROB30 0105/0110 1/4SM -DZ FG VV001
FM011200 11008KT 6SM -SHRA BR OVC020 RMK NXT FCST BY 302100Z